sensor_id;sensor_type;location;lat;lon;timestamp;temperature;humidity
52731;DHT22;38624;53.242;6.974;2023-05-23T00:01:41;22.80;99.90
52731;DHT22;38624;53.242;6.974;2023-05-23T00:04:07;22.80;99.90
52731;DHT22;38624;53.242;6.974;2023-05-23T00:06:34;22.80;99.90
52731;DHT22;38624;53.242;6.974;2023-05-23T00:09:01;22.70;99.90
52731;DHT22;38624;53.242;6.974;2023-05-23T00:11:26;22.70;99.90
52731;DHT22;38624;53.242;6.974;2023-05-23T00:13:54;22.70;99.90
52731;DHT22;38624;53.242;6.974;2023-05-23T00:16:20;22.70;99.90
52731;DHT22;38624;53.242;6.974;2023-05-23T00:18:47;22.70;99.90
52731;DHT22;38624;53.242;6.974;2023-05-23T00:21:15;22.70;99.90
52731;DHT22;38624;53.242;6.974;2023-05-23T00:23:42;22.70;99.90
52731;DHT22;38624;53.242;6.974;2023-05-23T00:26:08;22.70;99.90
52731;DHT22;38624;53.242;6.974;2023-05-23T00:28:34;22.70;99.90
52731;DHT22;38624;53.242;6.974;2023-05-23T00:30:59;22.60;99.90
52731;DHT22;38624;53.242;6.974;2023-05-23T00:33:25;22.70;99.90
52731;DHT22;38624;53.242;6.974;2023-05-23T00:35:51;22.70;99.90
52731;DHT22;38624;53.242;6.974;2023-05-23T00:38:17;22.70;99.90
52731;DHT22;38624;53.242;6.974;2023-05-23T00:40:42;22.60;99.90
52731;DHT22;38624;53.242;6.974;2023-05-23T00:43:08;22.60;99.90
52731;DHT22;38624;53.242;6.974;2023-05-23T00:45:34;22.60;99.90
52731;DHT22;38624;53.242;6.974;2023-05-23T00:48:00;22.60;99.90
52731;DHT22;38624;53.242;6.974;2023-05-23T00:50:28;22.60;99.90
52731;DHT22;38624;53.242;6.974;2023-05-23T00:52:54;22.60;99.90
52731;DHT22;38624;53.242;6.974;2023-05-23T00:55:22;22.60;99.90
52731;DHT22;38624;53.242;6.974;2023-05-23T00:57:49;22.80;99.90
52731;DHT22;38624;53.242;6.974;2023-05-23T01:00:16;22.60;99.90
52731;DHT22;38624;53.242;6.974;2023-05-23T01:02:46;22.60;99.90
52731;DHT22;38624;53.242;6.974;2023-05-23T01:05:13;22.60;99.90
52731;DHT22;38624;53.242;6.974;2023-05-23T01:07:45;22.60;99.90
52731;DHT22;38624;53.242;6.974;2023-05-23T01:10:12;22.60;99.90
52731;DHT22;38624;53.242;6.974;2023-05-23T01:15:14;22.60;99.90
52731;DHT22;38624;53.242;6.974;2023-05-23T01:17:58;22.60;99.90
52731;DHT22;38624;53.242;6.974;2023-05-23T01:20:30;22.60;99.90
52731;DHT22;38624;53.242;6.974;2023-05-23T01:28:45;22.50;99.90
52731;DHT22;38624;53.242;6.974;2023-05-23T01:31:12;22.60;99.90
52731;DHT22;38624;53.242;6.974;2023-05-23T01:33:39;22.60;99.90
52731;DHT22;38624;53.242;6.974;2023-05-23T01:36:05;22.50;99.90
52731;DHT22;38624;53.242;6.974;2023-05-23T01:38:32;22.50;99.90
52731;DHT22;38624;53.242;6.974;2023-05-23T01:40:58;22.60;99.90
52731;DHT22;38624;53.242;6.974;2023-05-23T01:43:24;22.50;99.90
52731;DHT22;38624;53.242;6.974;2023-05-23T01:45:52;22.50;99.90
52731;DHT22;38624;53.242;6.974;2023-05-23T01:48:18;22.50;99.90
52731;DHT22;38624;53.242;6.974;2023-05-23T01:50:45;22.50;99.90
52731;DHT22;38624;53.242;6.974;2023-05-23T01:53:12;22.50;99.90
52731;DHT22;38624;53.242;6.974;2023-05-23T01:55:39;22.50;99.90
52731;DHT22;38624;53.242;6.974;2023-05-23T01:58:05;22.50;99.90
52731;DHT22;38624;53.242;6.974;2023-05-23T02:00:31;22.50;99.90
52731;DHT22;38624;53.242;6.974;2023-05-23T02:02:57;22.40;99.90
52731;DHT22;38624;53.242;6.974;2023-05-23T02:05:23;22.40;99.90
52731;DHT22;38624;53.242;6.974;2023-05-23T02:07:49;22.40;99.90
52731;DHT22;38624;53.242;6.974;2023-05-23T02:10:15;22.40;99.90
52731;DHT22;38624;53.242;6.974;2023-05-23T02:12:41;22.40;99.90
52731;DHT22;38624;53.242;6.974;2023-05-23T02:15:07;22.40;99.90
52731;DHT22;38624;53.242;6.974;2023-05-23T02:17:32;22.40;99.90
52731;DHT22;38624;53.242;6.974;2023-05-23T02:19:58;22.40;99.90
52731;DHT22;38624;53.242;6.974;2023-05-23T02:22:24;22.40;99.90
52731;DHT22;38624;53.242;6.974;2023-05-23T02:24:50;22.30;99.90
52731;DHT22;38624;53.242;6.974;2023-05-23T02:27:17;22.40;99.90
52731;DHT22;38624;53.242;6.974;2023-05-23T02:29:42;22.30;99.90
52731;DHT22;38624;53.242;6.974;2023-05-23T02:32:08;22.30;99.90
52731;DHT22;38624;53.242;6.974;2023-05-23T02:34:34;22.30;99.90
52731;DHT22;38624;53.242;6.974;2023-05-23T02:36:59;22.30;99.90
52731;DHT22;38624;53.242;6.974;2023-05-23T02:39:26;22.30;99.90
52731;DHT22;38624;53.242;6.974;2023-05-23T02:41:51;22.30;99.90
52731;DHT22;38624;53.242;6.974;2023-05-23T02:44:17;22.30;99.90
52731;DHT22;38624;53.242;6.974;2023-05-23T02:46:44;22.30;99.90
52731;DHT22;38624;53.242;6.974;2023-05-23T02:49:10;22.20;99.90
52731;DHT22;38624;53.242;6.974;2023-05-23T02:51:36;22.20;99.90
52731;DHT22;38624;53.242;6.974;2023-05-23T02:54:02;22.20;99.90
52731;DHT22;38624;53.242;6.974;2023-05-23T02:56:28;22.20;99.90
52731;DHT22;38624;53.242;6.974;2023-05-23T02:58:53;22.20;99.90
52731;DHT22;38624;53.242;6.974;2023-05-23T03:01:19;22.20;99.90
52731;DHT22;38624;53.242;6.974;2023-05-23T03:03:45;22.20;99.90
52731;DHT22;38624;53.242;6.974;2023-05-23T03:06:11;22.20;99.90
52731;DHT22;38624;53.242;6.974;2023-05-23T03:08:40;22.20;99.90
52731;DHT22;38624;53.242;6.974;2023-05-23T03:11:06;22.10;99.90
52731;DHT22;38624;53.242;6.974;2023-05-23T03:13:31;22.10;99.90
52731;DHT22;38624;53.242;6.974;2023-05-23T03:15:57;22.10;99.90
52731;DHT22;38624;53.242;6.974;2023-05-23T03:18:23;22.10;99.90
52731;DHT22;38624;53.242;6.974;2023-05-23T03:20:48;22.10;99.90
52731;DHT22;38624;53.242;6.974;2023-05-23T03:23:14;22.10;99.90
52731;DHT22;38624;53.242;6.974;2023-05-23T03:25:41;22.10;99.90
52731;DHT22;38624;53.242;6.974;2023-05-23T03:28:07;22.10;99.90
52731;DHT22;38624;53.242;6.974;2023-05-23T03:30:33;22.10;99.90
52731;DHT22;38624;53.242;6.974;2023-05-23T03:32:59;22.10;99.90
52731;DHT22;38624;53.242;6.974;2023-05-23T03:35:26;22.00;99.90
52731;DHT22;38624;53.242;6.974;2023-05-23T03:37:52;22.10;99.90
52731;DHT22;38624;53.242;6.974;2023-05-23T03:40:17;22.00;99.90
52731;DHT22;38624;53.242;6.974;2023-05-23T03:42:43;22.00;99.90
52731;DHT22;38624;53.242;6.974;2023-05-23T03:45:09;22.00;99.90
52731;DHT22;38624;53.242;6.974;2023-05-23T03:47:34;22.00;99.90
52731;DHT22;38624;53.242;6.974;2023-05-23T03:50:00;22.00;99.90
52731;DHT22;38624;53.242;6.974;2023-05-23T03:52:26;22.00;99.90
52731;DHT22;38624;53.242;6.974;2023-05-23T03:54:53;22.00;99.90
52731;DHT22;38624;53.242;6.974;2023-05-23T03:57:18;22.00;99.90
52731;DHT22;38624;53.242;6.974;2023-05-23T03:59:44;21.90;99.90
52731;DHT22;38624;53.242;6.974;2023-05-23T04:02:10;22.00;99.90
52731;DHT22;38624;53.242;6.974;2023-05-23T04:04:35;21.90;99.90
52731;DHT22;38624;53.242;6.974;2023-05-23T04:07:01;21.90;99.90
52731;DHT22;38624;53.242;6.974;2023-05-23T04:09:27;21.90;99.90
52731;DHT22;38624;53.242;6.974;2023-05-23T04:11:52;21.90;99.90
52731;DHT22;38624;53.242;6.974;2023-05-23T04:14:18;21.90;99.90
52731;DHT22;38624;53.242;6.974;2023-05-23T04:16:48;21.90;99.90
52731;DHT22;38624;53.242;6.974;2023-05-23T04:19:14;21.90;99.90
52731;DHT22;38624;53.242;6.974;2023-05-23T04:21:40;21.90;99.90
52731;DHT22;38624;53.242;6.974;2023-05-23T04:24:06;21.90;99.90
52731;DHT22;38624;53.242;6.974;2023-05-23T04:26:32;21.90;99.90
52731;DHT22;38624;53.242;6.974;2023-05-23T04:29:01;21.90;99.90
52731;DHT22;38624;53.242;6.974;2023-05-23T04:31:26;21.90;99.90
52731;DHT22;38624;53.242;6.974;2023-05-23T04:33:52;21.90;99.90
52731;DHT22;38624;53.242;6.974;2023-05-23T04:36:18;21.90;99.90
52731;DHT22;38624;53.242;6.974;2023-05-23T04:38:43;21.90;99.90
52731;DHT22;38624;53.242;6.974;2023-05-23T04:41:09;21.90;99.90
52731;DHT22;38624;53.242;6.974;2023-05-23T04:43:35;21.80;99.90
52731;DHT22;38624;53.242;6.974;2023-05-23T04:46:09;21.80;99.90
52731;DHT22;38624;53.242;6.974;2023-05-23T04:48:35;21.80;99.90
52731;DHT22;38624;53.242;6.974;2023-05-23T04:51:03;21.80;99.90
52731;DHT22;38624;53.242;6.974;2023-05-23T04:53:36;21.80;99.90
52731;DHT22;38624;53.242;6.974;2023-05-23T04:56:01;21.80;99.90
52731;DHT22;38624;53.242;6.974;2023-05-23T04:58:27;21.70;99.90
52731;DHT22;38624;53.242;6.974;2023-05-23T05:00:53;21.80;99.90
52731;DHT22;38624;53.242;6.974;2023-05-23T05:03:18;21.70;99.90
52731;DHT22;38624;53.242;6.974;2023-05-23T05:05:44;21.70;99.90
52731;DHT22;38624;53.242;6.974;2023-05-23T05:08:10;21.70;99.90
52731;DHT22;38624;53.242;6.974;2023-05-23T05:10:37;21.70;99.90
52731;DHT22;38624;53.242;6.974;2023-05-23T05:13:02;21.70;99.90
52731;DHT22;38624;53.242;6.974;2023-05-23T05:15:28;21.70;99.90
52731;DHT22;38624;53.242;6.974;2023-05-23T05:17:53;21.70;99.90
52731;DHT22;38624;53.242;6.974;2023-05-23T05:20:19;21.90;99.90
52731;DHT22;38624;53.242;6.974;2023-05-23T05:22:46;21.70;99.90
52731;DHT22;38624;53.242;6.974;2023-05-23T05:25:11;21.70;99.90
52731;DHT22;38624;53.242;6.974;2023-05-23T05:27:38;21.70;99.90
52731;DHT22;38624;53.242;6.974;2023-05-23T05:30:07;21.60;99.90
52731;DHT22;38624;53.242;6.974;2023-05-23T05:32:33;21.60;99.90
52731;DHT22;38624;53.242;6.974;2023-05-23T05:35:00;21.60;99.90
52731;DHT22;38624;53.242;6.974;2023-05-23T05:37:25;21.60;99.90
52731;DHT22;38624;53.242;6.974;2023-05-23T05:39:51;21.60;99.90
52731;DHT22;38624;53.242;6.974;2023-05-23T05:42:19;21.60;99.90
52731;DHT22;38624;53.242;6.974;2023-05-23T05:44:46;21.60;99.90
52731;DHT22;38624;53.242;6.974;2023-05-23T05:47:12;21.60;99.90
52731;DHT22;38624;53.242;6.974;2023-05-23T05:49:38;21.60;99.90
52731;DHT22;38624;53.242;6.974;2023-05-23T05:52:07;21.60;99.90
52731;DHT22;38624;53.242;6.974;2023-05-23T05:54:32;21.60;99.90
52731;DHT22;38624;53.242;6.974;2023-05-23T05:56:58;21.60;99.90
52731;DHT22;38624;53.242;6.974;2023-05-23T05:59:24;21.50;99.90
52731;DHT22;38624;53.242;6.974;2023-05-23T06:01:51;21.50;99.90
52731;DHT22;38624;53.242;6.974;2023-05-23T06:04:17;21.50;99.90
52731;DHT22;38624;53.242;6.974;2023-05-23T06:06:42;21.50;99.90
52731;DHT22;38624;53.242;6.974;2023-05-23T06:09:08;21.50;99.90
52731;DHT22;38624;53.242;6.974;2023-05-23T06:11:35;21.50;99.90
52731;DHT22;38624;53.242;6.974;2023-05-23T06:14:03;21.50;99.90
52731;DHT22;38624;53.242;6.974;2023-05-23T06:16:29;21.50;99.90
52731;DHT22;38624;53.242;6.974;2023-05-23T06:18:55;21.50;99.90
52731;DHT22;38624;53.242;6.974;2023-05-23T06:21:20;21.50;99.90
52731;DHT22;38624;53.242;6.974;2023-05-23T06:23:46;21.50;99.90
52731;DHT22;38624;53.242;6.974;2023-05-23T06:26:12;21.50;99.90
52731;DHT22;38624;53.242;6.974;2023-05-23T06:28:37;21.50;99.90
52731;DHT22;38624;53.242;6.974;2023-05-23T06:31:06;21.40;99.90
52731;DHT22;38624;53.242;6.974;2023-05-23T06:33:34;21.50;99.90
52731;DHT22;38624;53.242;6.974;2023-05-23T06:36:00;21.40;99.90
52731;DHT22;38624;53.242;6.974;2023-05-23T06:38:30;21.50;99.90
52731;DHT22;38624;53.242;6.974;2023-05-23T06:40:56;21.40;99.90
52731;DHT22;38624;53.242;6.974;2023-05-23T06:43:21;21.40;99.90
52731;DHT22;38624;53.242;6.974;2023-05-23T06:45:47;21.40;99.90
52731;DHT22;38624;53.242;6.974;2023-05-23T06:48:13;21.40;99.90
52731;DHT22;38624;53.242;6.974;2023-05-23T06:50:39;21.40;99.90
52731;DHT22;38624;53.242;6.974;2023-05-23T06:53:05;21.40;99.90
52731;DHT22;38624;53.242;6.974;2023-05-23T06:55:31;21.40;99.90
52731;DHT22;38624;53.242;6.974;2023-05-23T06:57:59;21.40;99.90
52731;DHT22;38624;53.242;6.974;2023-05-23T07:00:24;21.40;99.90
52731;DHT22;38624;53.242;6.974;2023-05-23T07:02:50;21.40;99.90
52731;DHT22;38624;53.242;6.974;2023-05-23T07:05:16;21.40;99.90
52731;DHT22;38624;53.242;6.974;2023-05-23T07:07:42;21.50;99.90
52731;DHT22;38624;53.242;6.974;2023-05-23T07:10:09;21.50;99.90
52731;DHT22;38624;53.242;6.974;2023-05-23T07:12:35;21.50;99.90
52731;DHT22;38624;53.242;6.974;2023-05-23T07:15:01;21.50;99.90
52731;DHT22;38624;53.242;6.974;2023-05-23T07:17:26;21.40;99.90
52731;DHT22;38624;53.242;6.974;2023-05-23T07:19:55;21.50;99.90
52731;DHT22;38624;53.242;6.974;2023-05-23T07:22:20;21.50;99.90
52731;DHT22;38624;53.242;6.974;2023-05-23T07:24:46;21.50;99.90
52731;DHT22;38624;53.242;6.974;2023-05-23T07:27:12;21.50;99.90
52731;DHT22;38624;53.242;6.974;2023-05-23T07:29:38;21.40;99.90
52731;DHT22;38624;53.242;6.974;2023-05-23T07:32:04;21.50;99.90
52731;DHT22;38624;53.242;6.974;2023-05-23T07:34:30;21.40;99.90
52731;DHT22;38624;53.242;6.974;2023-05-23T07:36:55;21.40;99.90
52731;DHT22;38624;53.242;6.974;2023-05-23T07:39:21;21.40;99.90
52731;DHT22;38624;53.242;6.974;2023-05-23T07:41:48;21.40;99.90
52731;DHT22;38624;53.242;6.974;2023-05-23T07:44:15;21.40;99.90
52731;DHT22;38624;53.242;6.974;2023-05-23T07:46:41;21.40;99.90
52731;DHT22;38624;53.242;6.974;2023-05-23T07:49:06;21.50;99.90
52731;DHT22;38624;53.242;6.974;2023-05-23T07:51:32;21.50;99.90
52731;DHT22;38624;53.242;6.974;2023-05-23T07:53:58;21.50;99.90
52731;DHT22;38624;53.242;6.974;2023-05-23T07:56:23;21.50;99.90
52731;DHT22;38624;53.242;6.974;2023-05-23T07:58:49;21.40;99.90
52731;DHT22;38624;53.242;6.974;2023-05-23T08:01:15;21.40;99.90
52731;DHT22;38624;53.242;6.974;2023-05-23T08:03:41;21.50;99.90
52731;DHT22;38624;53.242;6.974;2023-05-23T08:06:07;21.50;99.90
52731;DHT22;38624;53.242;6.974;2023-05-23T08:08:33;21.50;99.90
52731;DHT22;38624;53.242;6.974;2023-05-23T08:11:00;21.50;99.90
52731;DHT22;38624;53.242;6.974;2023-05-23T08:13:26;21.50;99.90
52731;DHT22;38624;53.242;6.974;2023-05-23T08:15:53;21.50;99.90
52731;DHT22;38624;53.242;6.974;2023-05-23T08:18:18;21.50;99.90
52731;DHT22;38624;53.242;6.974;2023-05-23T08:20:44;21.60;99.90
52731;DHT22;38624;53.242;6.974;2023-05-23T08:23:10;21.60;99.90
52731;DHT22;38624;53.242;6.974;2023-05-23T08:25:38;21.60;99.90
52731;DHT22;38624;53.242;6.974;2023-05-23T08:28:04;21.60;99.90
52731;DHT22;38624;53.242;6.974;2023-05-23T08:30:30;21.60;99.90
52731;DHT22;38624;53.242;6.974;2023-05-23T08:32:58;21.60;99.90
52731;DHT22;38624;53.242;6.974;2023-05-23T08:35:25;21.60;99.90
52731;DHT22;38624;53.242;6.974;2023-05-23T08:37:53;21.60;99.90
52731;DHT22;38624;53.242;6.974;2023-05-23T08:40:21;21.60;99.90
52731;DHT22;38624;53.242;6.974;2023-05-23T08:42:50;21.60;99.90
52731;DHT22;38624;53.242;6.974;2023-05-23T08:45:17;21.60;99.90
52731;DHT22;38624;53.242;6.974;2023-05-23T08:47:43;21.60;99.90
52731;DHT22;38624;53.242;6.974;2023-05-23T08:50:14;21.60;99.90
52731;DHT22;38624;53.242;6.974;2023-05-23T08:55:24;21.60;99.90
52731;DHT22;38624;53.242;6.974;2023-05-23T08:57:55;21.60;99.90
52731;DHT22;38624;53.242;6.974;2023-05-23T09:00:22;21.70;99.90
52731;DHT22;38624;53.242;6.974;2023-05-23T09:02:49;21.70;99.90
52731;DHT22;38624;53.242;6.974;2023-05-23T09:05:16;21.60;99.90
52731;DHT22;38624;53.242;6.974;2023-05-23T09:07:43;21.70;99.90
52731;DHT22;38624;53.242;6.974;2023-05-23T09:10:14;21.70;99.90
52731;DHT22;38624;53.242;6.974;2023-05-23T09:12:42;21.70;99.90
52731;DHT22;38624;53.242;6.974;2023-05-23T09:15:09;21.70;99.90
52731;DHT22;38624;53.242;6.974;2023-05-23T09:17:35;21.70;99.90
52731;DHT22;38624;53.242;6.974;2023-05-23T09:20:01;21.70;99.90
52731;DHT22;38624;53.242;6.974;2023-05-23T09:22:29;21.70;99.90
52731;DHT22;38624;53.242;6.974;2023-05-23T09:24:55;21.70;99.90
52731;DHT22;38624;53.242;6.974;2023-05-23T09:27:21;21.70;99.90
52731;DHT22;38624;53.242;6.974;2023-05-23T09:29:48;21.70;99.90
52731;DHT22;38624;53.242;6.974;2023-05-23T09:32:18;21.70;99.90
52731;DHT22;38624;53.242;6.974;2023-05-23T09:35:09;21.70;99.90
52731;DHT22;38624;53.242;6.974;2023-05-23T09:37:41;21.70;99.90
52731;DHT22;38624;53.242;6.974;2023-05-23T09:40:09;21.70;99.90
52731;DHT22;38624;53.242;6.974;2023-05-23T09:42:35;21.70;99.90
52731;DHT22;38624;53.242;6.974;2023-05-23T09:45:06;21.70;99.90
52731;DHT22;38624;53.242;6.974;2023-05-23T09:47:32;21.70;99.90
52731;DHT22;38624;53.242;6.974;2023-05-23T09:49:57;21.80;99.90
52731;DHT22;38624;53.242;6.974;2023-05-23T09:52:23;21.80;99.90
52731;DHT22;38624;53.242;6.974;2023-05-23T09:54:49;21.80;99.90
52731;DHT22;38624;53.242;6.974;2023-05-23T09:57:15;21.80;99.90
52731;DHT22;38624;53.242;6.974;2023-05-23T09:59:46;21.80;99.90
52731;DHT22;38624;53.242;6.974;2023-05-23T10:02:16;21.80;99.90
52731;DHT22;38624;53.242;6.974;2023-05-23T10:04:49;21.80;99.90
52731;DHT22;38624;53.242;6.974;2023-05-23T10:07:20;21.80;99.90
52731;DHT22;38624;53.242;6.974;2023-05-23T10:09:55;21.80;99.90
52731;DHT22;38624;53.242;6.974;2023-05-23T10:15:11;21.90;99.90
52731;DHT22;38624;53.242;6.974;2023-05-23T10:20:15;21.90;99.90
52731;DHT22;38624;53.242;6.974;2023-05-23T10:22:42;21.90;99.90
52731;DHT22;38624;53.242;6.974;2023-05-23T10:25:08;21.80;99.90
52731;DHT22;38624;53.242;6.974;2023-05-23T10:27:39;21.80;99.90
52731;DHT22;38624;53.242;6.974;2023-05-23T10:30:06;21.80;99.90
52731;DHT22;38624;53.242;6.974;2023-05-23T10:32:33;21.80;99.90
52731;DHT22;38624;53.242;6.974;2023-05-23T10:46:19;21.90;99.90
52731;DHT22;38624;53.242;6.974;2023-05-23T10:48:46;21.80;99.90
52731;DHT22;38624;53.242;6.974;2023-05-23T10:51:13;21.80;99.90
52731;DHT22;38624;53.242;6.974;2023-05-23T10:53:45;21.80;99.90
52731;DHT22;38624;53.242;6.974;2023-05-23T10:56:24;21.80;99.90
52731;DHT22;38624;53.242;6.974;2023-05-23T10:58:54;21.80;99.90
52731;DHT22;38624;53.242;6.974;2023-05-23T11:01:20;21.80;99.90
52731;DHT22;38624;53.242;6.974;2023-05-23T11:06:37;21.80;99.90
52731;DHT22;38624;53.242;6.974;2023-05-23T11:09:11;21.90;99.90
52731;DHT22;38624;53.242;6.974;2023-05-23T11:14:16;21.90;99.90
52731;DHT22;38624;53.242;6.974;2023-05-23T11:16:43;21.80;99.90
52731;DHT22;38624;53.242;6.974;2023-05-23T11:21:48;21.80;99.90
52731;DHT22;38624;53.242;6.974;2023-05-23T11:24:15;21.80;99.90
52731;DHT22;38624;53.242;6.974;2023-05-23T11:26:57;21.70;99.90
52731;DHT22;38624;53.242;6.974;2023-05-23T11:29:28;21.70;99.90
52731;DHT22;38624;53.242;6.974;2023-05-23T11:31:54;21.60;99.90
52731;DHT22;38624;53.242;6.974;2023-05-23T11:34:20;21.60;99.90
52731;DHT22;38624;53.242;6.974;2023-05-23T11:36:46;21.60;99.90
52731;DHT22;38624;53.242;6.974;2023-05-23T11:39:16;21.60;99.90
52731;DHT22;38624;53.242;6.974;2023-05-23T11:41:43;21.60;99.90
52731;DHT22;38624;53.242;6.974;2023-05-23T11:44:12;21.70;99.90
52731;DHT22;38624;53.242;6.974;2023-05-23T11:46:38;21.70;99.90
52731;DHT22;38624;53.242;6.974;2023-05-23T11:49:10;21.80;99.90
52731;DHT22;38624;53.242;6.974;2023-05-23T11:51:37;21.80;99.90
52731;DHT22;38624;53.242;6.974;2023-05-23T11:54:02;21.80;99.90
52731;DHT22;38624;53.242;6.974;2023-05-23T11:56:28;21.80;99.90
52731;DHT22;38624;53.242;6.974;2023-05-23T11:58:55;21.80;99.90
52731;DHT22;38624;53.242;6.974;2023-05-23T12:01:28;21.90;99.90
52731;DHT22;38624;53.242;6.974;2023-05-23T12:03:55;21.90;99.90
52731;DHT22;38624;53.242;6.974;2023-05-23T12:06:23;21.80;99.90
52731;DHT22;38624;53.242;6.974;2023-05-23T12:08:51;21.80;99.90
52731;DHT22;38624;53.242;6.974;2023-05-23T12:11:17;21.70;99.90
52731;DHT22;38624;53.242;6.974;2023-05-23T12:13:42;21.80;99.90
52731;DHT22;38624;53.242;6.974;2023-05-23T12:16:09;21.80;99.90
52731;DHT22;38624;53.242;6.974;2023-05-23T12:18:37;21.80;99.90
52731;DHT22;38624;53.242;6.974;2023-05-23T12:21:04;21.80;99.90
52731;DHT22;38624;53.242;6.974;2023-05-23T12:23:33;21.80;99.90
52731;DHT22;38624;53.242;6.974;2023-05-23T12:26:03;21.80;99.90
52731;DHT22;38624;53.242;6.974;2023-05-23T12:28:36;21.80;99.90
52731;DHT22;38624;53.242;6.974;2023-05-23T12:31:16;21.80;99.90
52731;DHT22;38624;53.242;6.974;2023-05-23T12:33:43;21.90;99.90
52731;DHT22;38624;53.242;6.974;2023-05-23T12:36:31;22.00;99.90
52731;DHT22;38624;53.242;6.974;2023-05-23T12:39:03;22.00;99.90
52731;DHT22;38624;53.242;6.974;2023-05-23T12:41:31;21.90;99.90
52731;DHT22;38624;53.242;6.974;2023-05-23T12:43:58;21.90;99.90
52731;DHT22;38624;53.242;6.974;2023-05-23T12:46:24;22.00;99.90
52731;DHT22;38624;53.242;6.974;2023-05-23T12:48:50;22.00;99.90
52731;DHT22;38624;53.242;6.974;2023-05-23T12:51:17;22.10;99.90
52731;DHT22;38624;53.242;6.974;2023-05-23T12:53:43;22.10;99.90
52731;DHT22;38624;53.242;6.974;2023-05-23T12:56:09;22.10;99.90
52731;DHT22;38624;53.242;6.974;2023-05-23T12:58:35;22.20;99.90
52731;DHT22;38624;53.242;6.974;2023-05-23T13:01:01;22.20;99.90
52731;DHT22;38624;53.242;6.974;2023-05-23T13:03:27;22.20;99.90
52731;DHT22;38624;53.242;6.974;2023-05-23T13:05:56;22.30;99.90
52731;DHT22;38624;53.242;6.974;2023-05-23T13:08:23;22.30;99.90
52731;DHT22;38624;53.242;6.974;2023-05-23T13:10:49;22.20;99.90
52731;DHT22;38624;53.242;6.974;2023-05-23T13:13:15;22.20;99.90
52731;DHT22;38624;53.242;6.974;2023-05-23T13:15:40;22.40;99.90
52731;DHT22;38624;53.242;6.974;2023-05-23T13:18:06;22.80;99.90
52731;DHT22;38624;53.242;6.974;2023-05-23T13:20:32;23.20;99.90
52731;DHT22;38624;53.242;6.974;2023-05-23T13:22:58;23.50;99.90
52731;DHT22;38624;53.242;6.974;2023-05-23T13:25:26;24.10;99.90
52731;DHT22;38624;53.242;6.974;2023-05-23T13:27:52;23.80;99.90
52731;DHT22;38624;53.242;6.974;2023-05-23T13:30:19;24.00;99.90
52731;DHT22;38624;53.242;6.974;2023-05-23T13:32:45;24.30;99.80
52731;DHT22;38624;53.242;6.974;2023-05-23T13:35:11;24.10;99.70
52731;DHT22;38624;53.242;6.974;2023-05-23T13:37:37;24.10;99.80
52731;DHT22;38624;53.242;6.974;2023-05-23T13:40:03;24.10;99.70
52731;DHT22;38624;53.242;6.974;2023-05-23T13:42:29;24.70;99.50
52731;DHT22;38624;53.242;6.974;2023-05-23T13:44:55;25.00;99.10
52731;DHT22;38624;53.242;6.974;2023-05-23T13:47:21;25.60;98.90
52731;DHT22;38624;53.242;6.974;2023-05-23T13:49:47;25.80;98.40
52731;DHT22;38624;53.242;6.974;2023-05-23T13:52:13;25.50;98.30
52731;DHT22;38624;53.242;6.974;2023-05-23T13:54:38;25.60;98.30
52731;DHT22;38624;53.242;6.974;2023-05-23T13:57:04;25.90;98.00
52731;DHT22;38624;53.242;6.974;2023-05-23T13:59:31;26.50;97.80
52731;DHT22;38624;53.242;6.974;2023-05-23T14:01:56;27.00;97.80
52731;DHT22;38624;53.242;6.974;2023-05-23T14:04:22;26.90;97.40
52731;DHT22;38624;53.242;6.974;2023-05-23T14:06:48;27.00;97.20
52731;DHT22;38624;53.242;6.974;2023-05-23T14:09:14;27.40;97.00
52731;DHT22;38624;53.242;6.974;2023-05-23T14:11:40;27.10;97.10
52731;DHT22;38624;53.242;6.974;2023-05-23T14:14:06;26.60;96.90
52731;DHT22;38624;53.242;6.974;2023-05-23T14:16:31;27.10;96.80
52731;DHT22;38624;53.242;6.974;2023-05-23T14:18:57;27.20;96.60
52731;DHT22;38624;53.242;6.974;2023-05-23T14:21:23;27.10;96.50
52731;DHT22;38624;53.242;6.974;2023-05-23T14:23:48;27.00;96.40
52731;DHT22;38624;53.242;6.974;2023-05-23T14:26:14;26.80;96.40
52731;DHT22;38624;53.242;6.974;2023-05-23T14:28:40;27.20;96.20
52731;DHT22;38624;53.242;6.974;2023-05-23T14:31:06;27.20;96.00
52731;DHT22;38624;53.242;6.974;2023-05-23T14:33:32;27.40;95.90
52731;DHT22;38624;53.242;6.974;2023-05-23T14:35:59;27.80;95.60
52731;DHT22;38624;53.242;6.974;2023-05-23T14:38:25;28.10;95.40
52731;DHT22;38624;53.242;6.974;2023-05-23T14:40:51;28.40;95.10
52731;DHT22;38624;53.242;6.974;2023-05-23T14:43:18;28.70;94.80
52731;DHT22;38624;53.242;6.974;2023-05-23T14:45:44;28.90;94.50
52731;DHT22;38624;53.242;6.974;2023-05-23T14:48:09;29.10;94.40
52731;DHT22;38624;53.242;6.974;2023-05-23T14:50:35;29.30;94.10
52731;DHT22;38624;53.242;6.974;2023-05-23T14:53:01;29.40;93.80
52731;DHT22;38624;53.242;6.974;2023-05-23T14:55:27;29.20;93.50
52731;DHT22;38624;53.242;6.974;2023-05-23T14:57:53;28.40;93.60
52731;DHT22;38624;53.242;6.974;2023-05-23T15:00:19;28.50;93.60
52731;DHT22;38624;53.242;6.974;2023-05-23T15:02:45;28.20;93.50
52731;DHT22;38624;53.242;6.974;2023-05-23T15:05:11;27.70;93.60
52731;DHT22;38624;53.242;6.974;2023-05-23T15:07:37;27.80;93.60
52731;DHT22;38624;53.242;6.974;2023-05-23T15:10:04;28.00;93.60
52731;DHT22;38624;53.242;6.974;2023-05-23T15:12:31;27.80;93.70
52731;DHT22;38624;53.242;6.974;2023-05-23T15:14:57;27.40;93.80
52731;DHT22;38624;53.242;6.974;2023-05-23T15:17:32;27.10;93.90
52731;DHT22;38624;53.242;6.974;2023-05-23T15:19:58;26.60;94.10
52731;DHT22;38624;53.242;6.974;2023-05-23T15:22:24;26.20;94.30
52731;DHT22;38624;53.242;6.974;2023-05-23T15:24:50;26.00;94.60
52731;DHT22;38624;53.242;6.974;2023-05-23T15:27:17;25.70;94.70
52731;DHT22;38624;53.242;6.974;2023-05-23T15:29:44;25.50;94.90
52731;DHT22;38624;53.242;6.974;2023-05-23T15:32:10;25.30;95.00
52731;DHT22;38624;53.242;6.974;2023-05-23T15:34:36;25.20;95.20
52731;DHT22;38624;53.242;6.974;2023-05-23T15:37:01;25.00;95.30
52731;DHT22;38624;53.242;6.974;2023-05-23T15:39:27;24.90;95.40
52731;DHT22;38624;53.242;6.974;2023-05-23T15:41:53;24.70;95.50
52731;DHT22;38624;53.242;6.974;2023-05-23T15:44:19;24.60;95.60
52731;DHT22;38624;53.242;6.974;2023-05-23T15:46:49;24.40;95.70
52731;DHT22;38624;53.242;6.974;2023-05-23T15:49:16;24.30;95.90
52731;DHT22;38624;53.242;6.974;2023-05-23T15:51:44;24.20;96.00
52731;DHT22;38624;53.242;6.974;2023-05-23T15:54:10;24.10;96.10
52731;DHT22;38624;53.242;6.974;2023-05-23T15:56:35;24.00;96.20
52731;DHT22;38624;53.242;6.974;2023-05-23T15:59:01;23.90;96.30
52731;DHT22;38624;53.242;6.974;2023-05-23T16:01:27;23.80;96.30
52731;DHT22;38624;53.242;6.974;2023-05-23T16:03:52;23.80;96.30